X  Sluiten METAR luchtvaart weer gegevens      EHAM Amsterdam Airport Schiphol
Temperatuur
66°F Temperatuur
61°F Dauwpunt
83% Vochtigheid



Wind
3 MPH
5 KM/U
1 M/S
3 KTS



70°
ONO
Huidig weer

Helder Helder
Luchtdruk 1018.96 (hPa) - 30.09 (inHg)
Zicht 6 (mijl) - 9.7 (km)
Vliegveld
Vliegveld code EHAM

Locatie : Amsterdam Airport Schiphol
Afstand: 40 (mi)

Metar:
EHAM 190455Z 07003KT CAVOK 19/16 Q1019 NOSIG

Tijd: 19-07-2024 06:55 CEST